sensor_id;sensor_type;location;lat;lon;timestamp;P1;durP1;ratioP1;P2;durP2;ratioP2
32521;SDS011;18963;51.504;5.316;2022-07-22T00:00:54;9.40;;;4.60;;
32521;SDS011;18963;51.504;5.316;2022-07-22T00:03:19;11.77;;;4.63;;
32521;SDS011;18963;51.504;5.316;2022-07-22T00:05:45;15.80;;;5.57;;
32521;SDS011;18963;51.504;5.316;2022-07-22T00:08:12;10.85;;;4.80;;
32521;SDS011;18963;51.504;5.316;2022-07-22T00:10:38;7.50;;;4.22;;
32521;SDS011;18963;51.504;5.316;2022-07-22T00:13:03;8.73;;;4.70;;
32521;SDS011;18963;51.504;5.316;2022-07-22T00:15:29;8.90;;;4.72;;
32521;SDS011;18963;51.504;5.316;2022-07-22T00:17:54;10.25;;;4.55;;
32521;SDS011;18963;51.504;5.316;2022-07-22T00:20:20;9.52;;;4.55;;
32521;SDS011;18963;51.504;5.316;2022-07-22T00:22:46;9.25;;;4.65;;
32521;SDS011;18963;51.504;5.316;2022-07-22T00:25:11;9.48;;;4.25;;
32521;SDS011;18963;51.504;5.316;2022-07-22T00:27:37;8.73;;;4.60;;
32521;SDS011;18963;51.504;5.316;2022-07-22T00:30:03;8.10;;;3.92;;
32521;SDS011;18963;51.504;5.316;2022-07-22T00:32:29;8.43;;;4.57;;
32521;SDS011;18963;51.504;5.316;2022-07-22T00:34:54;7.50;;;4.22;;
32521;SDS011;18963;51.504;5.316;2022-07-22T00:37:20;9.73;;;5.03;;
32521;SDS011;18963;51.504;5.316;2022-07-22T00:39:46;13.40;;;4.95;;
32521;SDS011;18963;51.504;5.316;2022-07-22T00:42:13;11.57;;;4.60;;
32521;SDS011;18963;51.504;5.316;2022-07-22T00:44:39;10.77;;;4.03;;
32521;SDS011;18963;51.504;5.316;2022-07-22T00:47:04;8.05;;;4.40;;
32521;SDS011;18963;51.504;5.316;2022-07-22T00:49:30;9.63;;;4.70;;
32521;SDS011;18963;51.504;5.316;2022-07-22T00:51:56;9.25;;;5.00;;
32521;SDS011;18963;51.504;5.316;2022-07-22T00:54:22;13.18;;;5.28;;
32521;SDS011;18963;51.504;5.316;2022-07-22T00:56:48;8.35;;;4.95;;
32521;SDS011;18963;51.504;5.316;2022-07-22T00:59:14;9.57;;;4.72;;
32521;SDS011;18963;51.504;5.316;2022-07-22T01:01:39;8.75;;;4.47;;
32521;SDS011;18963;51.504;5.316;2022-07-22T01:04:05;10.82;;;4.53;;
32521;SDS011;18963;51.504;5.316;2022-07-22T01:06:31;7.72;;;4.13;;
32521;SDS011;18963;51.504;5.316;2022-07-22T01:08:57;11.50;;;4.82;;
32521;SDS011;18963;51.504;5.316;2022-07-22T01:11:23;9.65;;;4.13;;
32521;SDS011;18963;51.504;5.316;2022-07-22T01:13:50;9.80;;;4.55;;
32521;SDS011;18963;51.504;5.316;2022-07-22T01:16:17;9.52;;;4.18;;
32521;SDS011;18963;51.504;5.316;2022-07-22T01:18:43;9.32;;;4.75;;
32521;SDS011;18963;51.504;5.316;2022-07-22T01:21:10;7.97;;;4.70;;
32521;SDS011;18963;51.504;5.316;2022-07-22T01:23:37;8.23;;;4.28;;
32521;SDS011;18963;51.504;5.316;2022-07-22T01:26:02;10.27;;;4.50;;
32521;SDS011;18963;51.504;5.316;2022-07-22T01:28:29;9.07;;;4.60;;
32521;SDS011;18963;51.504;5.316;2022-07-22T01:30:54;9.80;;;4.50;;
32521;SDS011;18963;51.504;5.316;2022-07-22T01:33:21;8.77;;;4.63;;
32521;SDS011;18963;51.504;5.316;2022-07-22T01:35:48;6.90;;;3.85;;
32521;SDS011;18963;51.504;5.316;2022-07-22T01:38:14;7.90;;;4.57;;
32521;SDS011;18963;51.504;5.316;2022-07-22T01:40:40;12.05;;;5.07;;
32521;SDS011;18963;51.504;5.316;2022-07-22T01:43:07;10.20;;;4.55;;
32521;SDS011;18963;51.504;5.316;2022-07-22T01:45:33;9.82;;;4.70;;
32521;SDS011;18963;51.504;5.316;2022-07-22T01:47:59;6.57;;;3.42;;
32521;SDS011;18963;51.504;5.316;2022-07-22T01:50:25;6.38;;;4.65;;
32521;SDS011;18963;51.504;5.316;2022-07-22T01:52:51;6.38;;;4.40;;
32521;SDS011;18963;51.504;5.316;2022-07-22T01:55:17;6.82;;;5.07;;
32521;SDS011;18963;51.504;5.316;2022-07-22T01:57:43;9.15;;;5.32;;
32521;SDS011;18963;51.504;5.316;2022-07-22T02:00:09;7.53;;;5.35;;
32521;SDS011;18963;51.504;5.316;2022-07-22T02:02:36;7.18;;;5.57;;
32521;SDS011;18963;51.504;5.316;2022-07-22T02:05:02;6.88;;;5.53;;
32521;SDS011;18963;51.504;5.316;2022-07-22T02:07:28;6.85;;;3.70;;
32521;SDS011;18963;51.504;5.316;2022-07-22T02:09:54;8.55;;;3.70;;
32521;SDS011;18963;51.504;5.316;2022-07-22T02:12:20;9.65;;;4.13;;
32521;SDS011;18963;51.504;5.316;2022-07-22T02:14:46;6.20;;;4.25;;
32521;SDS011;18963;51.504;5.316;2022-07-22T02:17:12;8.23;;;4.88;;
32521;SDS011;18963;51.504;5.316;2022-07-22T02:19:38;8.30;;;4.40;;
32521;SDS011;18963;51.504;5.316;2022-07-22T02:22:05;8.77;;;6.13;;
32521;SDS011;18963;51.504;5.316;2022-07-22T02:24:31;10.07;;;6.75;;
32521;SDS011;18963;51.504;5.316;2022-07-22T02:26:56;12.85;;;7.00;;
32521;SDS011;18963;51.504;5.316;2022-07-22T02:29:22;9.30;;;6.30;;
32521;SDS011;18963;51.504;5.316;2022-07-22T02:31:47;10.75;;;6.70;;
32521;SDS011;18963;51.504;5.316;2022-07-22T02:34:13;9.73;;;6.80;;
32521;SDS011;18963;51.504;5.316;2022-07-22T02:36:39;9.60;;;6.60;;
32521;SDS011;18963;51.504;5.316;2022-07-22T02:39:05;11.15;;;6.88;;
32521;SDS011;18963;51.504;5.316;2022-07-22T02:41:31;10.00;;;6.00;;
32521;SDS011;18963;51.504;5.316;2022-07-22T02:43:56;11.55;;;6.40;;
32521;SDS011;18963;51.504;5.316;2022-07-22T02:46:22;9.60;;;6.65;;
32521;SDS011;18963;51.504;5.316;2022-07-22T02:48:49;13.10;;;6.45;;
32521;SDS011;18963;51.504;5.316;2022-07-22T02:51:15;11.10;;;6.03;;
32521;SDS011;18963;51.504;5.316;2022-07-22T02:53:41;10.57;;;6.32;;
32521;SDS011;18963;51.504;5.316;2022-07-22T02:56:07;10.60;;;6.80;;
32521;SDS011;18963;51.504;5.316;2022-07-22T02:58:33;9.27;;;5.78;;
32521;SDS011;18963;51.504;5.316;2022-07-22T03:00:58;13.05;;;6.30;;
32521;SDS011;18963;51.504;5.316;2022-07-22T03:03:24;11.20;;;6.35;;
32521;SDS011;18963;51.504;5.316;2022-07-22T03:05:49;12.02;;;6.65;;
32521;SDS011;18963;51.504;5.316;2022-07-22T03:08:15;8.90;;;5.78;;
32521;SDS011;18963;51.504;5.316;2022-07-22T03:10:42;10.30;;;5.60;;
32521;SDS011;18963;51.504;5.316;2022-07-22T03:13:07;7.95;;;5.55;;
32521;SDS011;18963;51.504;5.316;2022-07-22T03:15:33;9.38;;;5.20;;
32521;SDS011;18963;51.504;5.316;2022-07-22T03:17:58;9.10;;;6.50;;
32521;SDS011;18963;51.504;5.316;2022-07-22T03:20:24;10.00;;;6.13;;
32521;SDS011;18963;51.504;5.316;2022-07-22T03:22:49;10.32;;;6.20;;
32521;SDS011;18963;51.504;5.316;2022-07-22T03:25:15;7.20;;;5.93;;
32521;SDS011;18963;51.504;5.316;2022-07-22T03:27:41;7.25;;;5.57;;
32521;SDS011;18963;51.504;5.316;2022-07-22T03:30:06;8.77;;;5.95;;
32521;SDS011;18963;51.504;5.316;2022-07-22T03:32:32;7.47;;;6.13;;
32521;SDS011;18963;51.504;5.316;2022-07-22T03:34:58;8.35;;;5.93;;
32521;SDS011;18963;51.504;5.316;2022-07-22T03:37:24;9.48;;;6.38;;
32521;SDS011;18963;51.504;5.316;2022-07-22T03:39:50;7.80;;;6.15;;
32521;SDS011;18963;51.504;5.316;2022-07-22T03:42:15;9.00;;;6.22;;
32521;SDS011;18963;51.504;5.316;2022-07-22T03:44:41;7.90;;;5.97;;
32521;SDS011;18963;51.504;5.316;2022-07-22T03:47:06;8.27;;;5.65;;
32521;SDS011;18963;51.504;5.316;2022-07-22T03:49:32;7.82;;;5.78;;
32521;SDS011;18963;51.504;5.316;2022-07-22T03:51:58;10.05;;;7.00;;
32521;SDS011;18963;51.504;5.316;2022-07-22T03:54:23;8.77;;;6.40;;
32521;SDS011;18963;51.504;5.316;2022-07-22T03:56:49;9.32;;;6.72;;
32521;SDS011;18963;51.504;5.316;2022-07-22T03:59:15;8.82;;;6.72;;
32521;SDS011;18963;51.504;5.316;2022-07-22T04:01:41;9.32;;;7.00;;
32521;SDS011;18963;51.504;5.316;2022-07-22T04:04:06;9.88;;;8.85;;
32521;SDS011;18963;51.504;5.316;2022-07-22T04:06:32;9.75;;;8.75;;
32521;SDS011;18963;51.504;5.316;2022-07-22T04:08:57;11.10;;;9.90;;
32521;SDS011;18963;51.504;5.316;2022-07-22T04:11:23;11.55;;;10.35;;
32521;SDS011;18963;51.504;5.316;2022-07-22T04:13:49;12.40;;;9.50;;
32521;SDS011;18963;51.504;5.316;2022-07-22T04:16:15;10.82;;;9.82;;
32521;SDS011;18963;51.504;5.316;2022-07-22T04:18:40;10.35;;;9.27;;
32521;SDS011;18963;51.504;5.316;2022-07-22T04:21:06;10.57;;;9.52;;
32521;SDS011;18963;51.504;5.316;2022-07-22T04:23:31;24.75;;;23.25;;
32521;SDS011;18963;51.504;5.316;2022-07-22T04:25:57;10.80;;;9.70;;
32521;SDS011;18963;51.504;5.316;2022-07-22T04:28:23;15.68;;;10.40;;
32521;SDS011;18963;51.504;5.316;2022-07-22T04:30:49;11.50;;;9.60;;
32521;SDS011;18963;51.504;5.316;2022-07-22T04:33:14;10.90;;;9.80;;
32521;SDS011;18963;51.504;5.316;2022-07-22T04:35:40;10.80;;;9.70;;
32521;SDS011;18963;51.504;5.316;2022-07-22T04:38:05;10.15;;;8.95;;
32521;SDS011;18963;51.504;5.316;2022-07-22T04:40:31;12.40;;;10.23;;
32521;SDS011;18963;51.504;5.316;2022-07-22T04:42:56;12.18;;;9.18;;
32521;SDS011;18963;51.504;5.316;2022-07-22T04:45:22;11.10;;;9.15;;
32521;SDS011;18963;51.504;5.316;2022-07-22T04:47:48;10.52;;;9.43;;
32521;SDS011;18963;51.504;5.316;2022-07-22T04:50:13;11.32;;;9.55;;
32521;SDS011;18963;51.504;5.316;2022-07-22T04:52:39;13.23;;;8.98;;
32521;SDS011;18963;51.504;5.316;2022-07-22T04:55:04;12.35;;;8.98;;
32521;SDS011;18963;51.504;5.316;2022-07-22T04:57:30;11.75;;;8.85;;
32521;SDS011;18963;51.504;5.316;2022-07-22T04:59:56;17.27;;;10.95;;
32521;SDS011;18963;51.504;5.316;2022-07-22T05:02:22;12.05;;;9.65;;
32521;SDS011;18963;51.504;5.316;2022-07-22T05:04:47;12.75;;;9.73;;
32521;SDS011;18963;51.504;5.316;2022-07-22T05:07:13;16.65;;;10.23;;
32521;SDS011;18963;51.504;5.316;2022-07-22T05:09:39;13.75;;;11.02;;
32521;SDS011;18963;51.504;5.316;2022-07-22T05:12:04;13.73;;;11.23;;
32521;SDS011;18963;51.504;5.316;2022-07-22T05:14:30;12.65;;;10.30;;
32521;SDS011;18963;51.504;5.316;2022-07-22T05:16:56;13.07;;;9.75;;
32521;SDS011;18963;51.504;5.316;2022-07-22T05:19:21;13.15;;;10.05;;
32521;SDS011;18963;51.504;5.316;2022-07-22T05:21:47;12.00;;;9.75;;
32521;SDS011;18963;51.504;5.316;2022-07-22T05:24:12;10.63;;;9.43;;
32521;SDS011;18963;51.504;5.316;2022-07-22T05:26:38;14.15;;;11.18;;
32521;SDS011;18963;51.504;5.316;2022-07-22T05:29:04;13.52;;;9.15;;
32521;SDS011;18963;51.504;5.316;2022-07-22T05:31:29;15.85;;;10.13;;
32521;SDS011;18963;51.504;5.316;2022-07-22T05:33:55;13.90;;;9.95;;
32521;SDS011;18963;51.504;5.316;2022-07-22T05:36:21;15.20;;;10.02;;
32521;SDS011;18963;51.504;5.316;2022-07-22T05:38:47;16.33;;;9.70;;
32521;SDS011;18963;51.504;5.316;2022-07-22T05:41:12;14.30;;;9.55;;
32521;SDS011;18963;51.504;5.316;2022-07-22T05:43:38;13.95;;;9.05;;
32521;SDS011;18963;51.504;5.316;2022-07-22T05:46:04;14.57;;;9.93;;
32521;SDS011;18963;51.504;5.316;2022-07-22T05:48:30;13.90;;;8.68;;
32521;SDS011;18963;51.504;5.316;2022-07-22T05:50:56;12.32;;;8.23;;
32521;SDS011;18963;51.504;5.316;2022-07-22T05:53:23;11.35;;;8.50;;
32521;SDS011;18963;51.504;5.316;2022-07-22T05:55:48;16.08;;;8.52;;
32521;SDS011;18963;51.504;5.316;2022-07-22T05:58:14;11.25;;;8.98;;
32521;SDS011;18963;51.504;5.316;2022-07-22T06:00:40;10.70;;;9.48;;
32521;SDS011;18963;51.504;5.316;2022-07-22T06:03:06;11.57;;;8.65;;
32521;SDS011;18963;51.504;5.316;2022-07-22T06:05:32;8.80;;;7.47;;
32521;SDS011;18963;51.504;5.316;2022-07-22T06:07:57;10.98;;;8.35;;
32521;SDS011;18963;51.504;5.316;2022-07-22T06:10:23;12.77;;;7.93;;
32521;SDS011;18963;51.504;5.316;2022-07-22T06:12:48;11.23;;;7.93;;
32521;SDS011;18963;51.504;5.316;2022-07-22T06:15:14;11.05;;;8.07;;
32521;SDS011;18963;51.504;5.316;2022-07-22T06:17:40;9.32;;;7.75;;
32521;SDS011;18963;51.504;5.316;2022-07-22T06:20:05;11.23;;;7.97;;
32521;SDS011;18963;51.504;5.316;2022-07-22T06:22:31;14.35;;;7.93;;
32521;SDS011;18963;51.504;5.316;2022-07-22T06:24:57;7.80;;;7.00;;
32521;SDS011;18963;51.504;5.316;2022-07-22T06:27:22;10.68;;;6.75;;
32521;SDS011;18963;51.504;5.316;2022-07-22T06:29:48;9.18;;;6.72;;
32521;SDS011;18963;51.504;5.316;2022-07-22T06:32:14;8.63;;;6.25;;
32521;SDS011;18963;51.504;5.316;2022-07-22T06:34:39;12.50;;;7.70;;
32521;SDS011;18963;51.504;5.316;2022-07-22T06:37:05;7.93;;;6.10;;
32521;SDS011;18963;51.504;5.316;2022-07-22T06:39:30;8.93;;;6.80;;
32521;SDS011;18963;51.504;5.316;2022-07-22T06:41:56;10.35;;;6.82;;
32521;SDS011;18963;51.504;5.316;2022-07-22T06:44:22;8.10;;;6.82;;
32521;SDS011;18963;51.504;5.316;2022-07-22T06:46:47;9.10;;;6.40;;
32521;SDS011;18963;51.504;5.316;2022-07-22T06:49:13;7.32;;;6.10;;
32521;SDS011;18963;51.504;5.316;2022-07-22T06:51:38;7.15;;;6.00;;
32521;SDS011;18963;51.504;5.316;2022-07-22T06:54:04;8.60;;;6.40;;
32521;SDS011;18963;51.504;5.316;2022-07-22T06:56:30;9.23;;;5.95;;
32521;SDS011;18963;51.504;5.316;2022-07-22T06:58:55;8.15;;;5.75;;
32521;SDS011;18963;51.504;5.316;2022-07-22T07:01:21;8.13;;;7.13;;
32521;SDS011;18963;51.504;5.316;2022-07-22T07:03:46;13.18;;;5.88;;
32521;SDS011;18963;51.504;5.316;2022-07-22T07:06:12;5.85;;;5.22;;
32521;SDS011;18963;51.504;5.316;2022-07-22T07:08:39;7.05;;;5.85;;
32521;SDS011;18963;51.504;5.316;2022-07-22T07:11:05;7.05;;;5.53;;
32521;SDS011;18963;51.504;5.316;2022-07-22T07:13:31;6.57;;;5.10;;
32521;SDS011;18963;51.504;5.316;2022-07-22T07:15:56;7.65;;;5.10;;
32521;SDS011;18963;51.504;5.316;2022-07-22T07:18:22;6.00;;;4.78;;
32521;SDS011;18963;51.504;5.316;2022-07-22T07:20:48;7.47;;;4.53;;
32521;SDS011;18963;51.504;5.316;2022-07-22T07:23:14;9.48;;;5.18;;
32521;SDS011;18963;51.504;5.316;2022-07-22T07:25:39;6.18;;;4.90;;
32521;SDS011;18963;51.504;5.316;2022-07-22T07:28:05;4.85;;;4.35;;
32521;SDS011;18963;51.504;5.316;2022-07-22T07:30:31;4.95;;;4.30;;
32521;SDS011;18963;51.504;5.316;2022-07-22T07:32:56;8.10;;;4.45;;
32521;SDS011;18963;51.504;5.316;2022-07-22T07:35:22;4.93;;;4.30;;
32521;SDS011;18963;51.504;5.316;2022-07-22T07:37:48;5.85;;;3.97;;
32521;SDS011;18963;51.504;5.316;2022-07-22T07:40:13;4.90;;;4.03;;
32521;SDS011;18963;51.504;5.316;2022-07-22T07:42:39;5.43;;;4.00;;
32521;SDS011;18963;51.504;5.316;2022-07-22T07:45:05;4.13;;;3.72;;
32521;SDS011;18963;51.504;5.316;2022-07-22T07:47:31;4.82;;;4.25;;
32521;SDS011;18963;51.504;5.316;2022-07-22T07:49:57;4.07;;;3.67;;
32521;SDS011;18963;51.504;5.316;2022-07-22T07:52:25;5.57;;;3.58;;
32521;SDS011;18963;51.504;5.316;2022-07-22T07:54:51;4.47;;;3.90;;
32521;SDS011;18963;51.504;5.316;2022-07-22T07:57:17;3.70;;;3.10;;
32521;SDS011;18963;51.504;5.316;2022-07-22T07:59:43;3.95;;;3.55;;
32521;SDS011;18963;51.504;5.316;2022-07-22T08:02:09;3.92;;;3.40;;
32521;SDS011;18963;51.504;5.316;2022-07-22T08:04:35;4.40;;;3.33;;
32521;SDS011;18963;51.504;5.316;2022-07-22T08:07:01;3.78;;;2.88;;
32521;SDS011;18963;51.504;5.316;2022-07-22T08:09:28;4.70;;;3.15;;
32521;SDS011;18963;51.504;5.316;2022-07-22T08:11:53;4.70;;;3.38;;
32521;SDS011;18963;51.504;5.316;2022-07-22T08:14:19;4.07;;;2.72;;
32521;SDS011;18963;51.504;5.316;2022-07-22T08:16:45;2.85;;;2.35;;
32521;SDS011;18963;51.504;5.316;2022-07-22T08:19:11;3.17;;;2.50;;
32521;SDS011;18963;51.504;5.316;2022-07-22T08:21:36;2.50;;;2.30;;
32521;SDS011;18963;51.504;5.316;2022-07-22T08:24:04;4.30;;;2.63;;
32521;SDS011;18963;51.504;5.316;2022-07-22T08:26:30;3.50;;;3.08;;
32521;SDS011;18963;51.504;5.316;2022-07-22T08:28:56;4.20;;;3.10;;
32521;SDS011;18963;51.504;5.316;2022-07-22T08:31:21;4.95;;;3.17;;
32521;SDS011;18963;51.504;5.316;2022-07-22T08:33:47;5.22;;;3.03;;
32521;SDS011;18963;51.504;5.316;2022-07-22T08:36:12;4.20;;;3.08;;
32521;SDS011;18963;51.504;5.316;2022-07-22T08:38:38;3.47;;;2.80;;
32521;SDS011;18963;51.504;5.316;2022-07-22T08:41:04;6.15;;;3.17;;
32521;SDS011;18963;51.504;5.316;2022-07-22T08:43:30;4.25;;;3.13;;
32521;SDS011;18963;51.504;5.316;2022-07-22T08:45:59;3.58;;;3.10;;
32521;SDS011;18963;51.504;5.316;2022-07-22T08:48:24;4.63;;;2.83;;
32521;SDS011;18963;51.504;5.316;2022-07-22T08:50:50;3.78;;;2.97;;
32521;SDS011;18963;51.504;5.316;2022-07-22T08:53:15;3.60;;;2.35;;
32521;SDS011;18963;51.504;5.316;2022-07-22T08:55:45;3.25;;;2.55;;
32521;SDS011;18963;51.504;5.316;2022-07-22T08:58:13;3.53;;;2.42;;
32521;SDS011;18963;51.504;5.316;2022-07-22T09:00:40;3.67;;;2.05;;
32521;SDS011;18963;51.504;5.316;2022-07-22T09:05:45;3.45;;;2.10;;
32521;SDS011;18963;51.504;5.316;2022-07-22T09:08:11;4.00;;;2.00;;
32521;SDS011;18963;51.504;5.316;2022-07-22T09:10:37;2.95;;;2.28;;
32521;SDS011;18963;51.504;5.316;2022-07-22T09:13:03;3.47;;;2.42;;
32521;SDS011;18963;51.504;5.316;2022-07-22T09:15:32;3.78;;;2.35;;
32521;SDS011;18963;51.504;5.316;2022-07-22T09:18:01;4.13;;;2.58;;
32521;SDS011;18963;51.504;5.316;2022-07-22T09:20:28;4.13;;;2.50;;
32521;SDS011;18963;51.504;5.316;2022-07-22T09:22:54;4.63;;;2.40;;
32521;SDS011;18963;51.504;5.316;2022-07-22T09:30:32;3.00;;;2.17;;
32521;SDS011;18963;51.504;5.316;2022-07-22T09:33:00;5.10;;;2.50;;
32521;SDS011;18963;51.504;5.316;2022-07-22T09:35:26;4.28;;;2.50;;
32521;SDS011;18963;51.504;5.316;2022-07-22T09:37:54;5.53;;;3.20;;
32521;SDS011;18963;51.504;5.316;2022-07-22T09:40:22;6.07;;;2.65;;
32521;SDS011;18963;51.504;5.316;2022-07-22T09:42:53;3.83;;;2.53;;
32521;SDS011;18963;51.504;5.316;2022-07-22T09:45:22;4.63;;;2.60;;
32521;SDS011;18963;51.504;5.316;2022-07-22T09:47:49;4.28;;;2.80;;
32521;SDS011;18963;51.504;5.316;2022-07-22T09:50:20;5.35;;;2.72;;
32521;SDS011;18963;51.504;5.316;2022-07-22T09:52:48;5.28;;;2.60;;
32521;SDS011;18963;51.504;5.316;2022-07-22T09:55:15;3.50;;;2.45;;
32521;SDS011;18963;51.504;5.316;2022-07-22T09:57:42;4.55;;;3.00;;
32521;SDS011;18963;51.504;5.316;2022-07-22T10:00:08;4.88;;;2.97;;
32521;SDS011;18963;51.504;5.316;2022-07-22T10:02:45;4.00;;;2.63;;
32521;SDS011;18963;51.504;5.316;2022-07-22T10:05:18;4.55;;;2.78;;
32521;SDS011;18963;51.504;5.316;2022-07-22T10:07:46;4.60;;;2.60;;
32521;SDS011;18963;51.504;5.316;2022-07-22T10:10:14;5.78;;;2.70;;
32521;SDS011;18963;51.504;5.316;2022-07-22T10:12:42;5.22;;;2.83;;
32521;SDS011;18963;51.504;5.316;2022-07-22T10:15:08;4.10;;;2.40;;
32521;SDS011;18963;51.504;5.316;2022-07-22T10:17:38;7.28;;;2.90;;
32521;SDS011;18963;51.504;5.316;2022-07-22T10:20:08;4.05;;;2.70;;
32521;SDS011;18963;51.504;5.316;2022-07-22T10:25:12;4.45;;;2.50;;
32521;SDS011;18963;51.504;5.316;2022-07-22T10:30:17;4.50;;;2.42;;
32521;SDS011;18963;51.504;5.316;2022-07-22T10:32:45;5.43;;;2.45;;
32521;SDS011;18963;51.504;5.316;2022-07-22T10:35:25;4.10;;;2.38;;
32521;SDS011;18963;51.504;5.316;2022-07-22T10:37:51;5.53;;;2.63;;
32521;SDS011;18963;51.504;5.316;2022-07-22T10:40:20;5.05;;;2.60;;
32521;SDS011;18963;51.504;5.316;2022-07-22T10:45:25;4.22;;;2.35;;
32521;SDS011;18963;51.504;5.316;2022-07-22T10:47:58;6.63;;;2.78;;
32521;SDS011;18963;51.504;5.316;2022-07-22T10:56:05;5.10;;;3.35;;
32521;SDS011;18963;51.504;5.316;2022-07-22T11:01:03;5.60;;;2.75;;
32521;SDS011;18963;51.504;5.316;2022-07-22T11:03:33;6.60;;;3.00;;
32521;SDS011;18963;51.504;5.316;2022-07-22T11:06:34;9.60;;;2.95;;
32521;SDS011;18963;51.504;5.316;2022-07-22T11:08:59;5.53;;;2.78;;
32521;SDS011;18963;51.504;5.316;2022-07-22T11:11:35;6.15;;;2.72;;
32521;SDS011;18963;51.504;5.316;2022-07-22T11:14:27;6.47;;;2.97;;
32521;SDS011;18963;51.504;5.316;2022-07-22T11:17:00;5.72;;;2.28;;
32521;SDS011;18963;51.504;5.316;2022-07-22T11:19:30;4.10;;;2.27;;
32521;SDS011;18963;51.504;5.316;2022-07-22T11:22:05;7.20;;;2.63;;
32521;SDS011;18963;51.504;5.316;2022-07-22T11:24:32;5.50;;;2.80;;
32521;SDS011;18963;51.504;5.316;2022-07-22T11:26:59;5.28;;;2.72;;
32521;SDS011;18963;51.504;5.316;2022-07-22T11:29:30;5.50;;;2.63;;
32521;SDS011;18963;51.504;5.316;2022-07-22T11:32:01;10.80;;;3.28;;
32521;SDS011;18963;51.504;5.316;2022-07-22T11:34:28;7.78;;;3.25;;
32521;SDS011;18963;51.504;5.316;2022-07-22T11:36:54;5.97;;;2.97;;
32521;SDS011;18963;51.504;5.316;2022-07-22T11:39:21;6.45;;;2.92;;
32521;SDS011;18963;51.504;5.316;2022-07-22T11:41:50;5.80;;;2.92;;
32521;SDS011;18963;51.504;5.316;2022-07-22T11:44:17;6.13;;;3.20;;
32521;SDS011;18963;51.504;5.316;2022-07-22T11:46:47;5.60;;;2.92;;
32521;SDS011;18963;51.504;5.316;2022-07-22T11:49:14;5.90;;;3.10;;
32521;SDS011;18963;51.504;5.316;2022-07-22T11:51:42;5.38;;;2.78;;
32521;SDS011;18963;51.504;5.316;2022-07-22T11:54:08;5.65;;;3.10;;
32521;SDS011;18963;51.504;5.316;2022-07-22T11:56:34;6.90;;;2.90;;
32521;SDS011;18963;51.504;5.316;2022-07-22T11:59:00;6.85;;;3.35;;
32521;SDS011;18963;51.504;5.316;2022-07-22T12:01:34;6.35;;;3.13;;
32521;SDS011;18963;51.504;5.316;2022-07-22T12:04:05;8.25;;;2.90;;
32521;SDS011;18963;51.504;5.316;2022-07-22T12:06:33;5.47;;;3.08;;
32521;SDS011;18963;51.504;5.316;2022-07-22T12:09:12;6.05;;;3.10;;
32521;SDS011;18963;51.504;5.316;2022-07-22T12:11:43;7.47;;;3.03;;
32521;SDS011;18963;51.504;5.316;2022-07-22T12:14:11;7.10;;;2.80;;
32521;SDS011;18963;51.504;5.316;2022-07-22T12:16:37;6.28;;;3.30;;
32521;SDS011;18963;51.504;5.316;2022-07-22T12:21:35;7.95;;;4.57;;
32521;SDS011;18963;51.504;5.316;2022-07-22T12:24:16;6.65;;;4.32;;
32521;SDS011;18963;51.504;5.316;2022-07-22T12:26:49;8.07;;;4.20;;
32521;SDS011;18963;51.504;5.316;2022-07-22T12:29:20;6.18;;;4.13;;
32521;SDS011;18963;51.504;5.316;2022-07-22T12:31:49;7.70;;;4.70;;
32521;SDS011;18963;51.504;5.316;2022-07-22T12:34:36;7.97;;;4.78;;
32521;SDS011;18963;51.504;5.316;2022-07-22T12:42:26;6.57;;;4.35;;
32521;SDS011;18963;51.504;5.316;2022-07-22T12:44:58;8.35;;;4.95;;
32521;SDS011;18963;51.504;5.316;2022-07-22T12:47:42;7.35;;;4.70;;
32521;SDS011;18963;51.504;5.316;2022-07-22T12:50:23;6.55;;;4.00;;
32521;SDS011;18963;51.504;5.316;2022-07-22T12:55:36;8.13;;;5.07;;
32521;SDS011;18963;51.504;5.316;2022-07-22T12:58:03;8.05;;;4.82;;
32521;SDS011;18963;51.504;5.316;2022-07-22T13:00:30;8.13;;;4.88;;
32521;SDS011;18963;51.504;5.316;2022-07-22T13:03:15;6.80;;;4.40;;
32521;SDS011;18963;51.504;5.316;2022-07-22T13:05:43;8.98;;;4.85;;
32521;SDS011;18963;51.504;5.316;2022-07-22T13:08:11;6.68;;;4.75;;
32521;SDS011;18963;51.504;5.316;2022-07-22T13:10:37;9.10;;;5.07;;
32521;SDS011;18963;51.504;5.316;2022-07-22T13:13:02;7.38;;;4.95;;
32521;SDS011;18963;51.504;5.316;2022-07-22T13:15:28;7.43;;;5.07;;
32521;SDS011;18963;51.504;5.316;2022-07-22T13:17:54;6.53;;;4.82;;
32521;SDS011;18963;51.504;5.316;2022-07-22T13:20:19;6.80;;;4.90;;
32521;SDS011;18963;51.504;5.316;2022-07-22T13:22:46;6.10;;;4.13;;
32521;SDS011;18963;51.504;5.316;2022-07-22T13:25:12;6.75;;;4.43;;
32521;SDS011;18963;51.504;5.316;2022-07-22T13:27:38;8.05;;;4.78;;
32521;SDS011;18963;51.504;5.316;2022-07-22T13:30:04;8.00;;;4.97;;
32521;SDS011;18963;51.504;5.316;2022-07-22T13:32:30;8.95;;;5.55;;
32521;SDS011;18963;51.504;5.316;2022-07-22T13:34:55;7.95;;;5.35;;
32521;SDS011;18963;51.504;5.316;2022-07-22T13:37:22;5.82;;;4.65;;
32521;SDS011;18963;51.504;5.316;2022-07-22T13:39:47;6.88;;;4.63;;
32521;SDS011;18963;51.504;5.316;2022-07-22T13:42:13;7.57;;;4.47;;
32521;SDS011;18963;51.504;5.316;2022-07-22T13:44:42;8.30;;;4.78;;
32521;SDS011;18963;51.504;5.316;2022-07-22T13:47:09;6.90;;;4.20;;
32521;SDS011;18963;51.504;5.316;2022-07-22T13:49:35;9.20;;;4.47;;
32521;SDS011;18963;51.504;5.316;2022-07-22T13:52:00;7.47;;;4.20;;
32521;SDS011;18963;51.504;5.316;2022-07-22T13:54:26;7.53;;;4.82;;
32521;SDS011;18963;51.504;5.316;2022-07-22T13:56:52;7.25;;;4.88;;
32521;SDS011;18963;51.504;5.316;2022-07-22T13:59:18;9.60;;;5.47;;
32521;SDS011;18963;51.504;5.316;2022-07-22T14:01:44;7.28;;;4.82;;
32521;SDS011;18963;51.504;5.316;2022-07-22T14:04:09;6.18;;;4.50;;
32521;SDS011;18963;51.504;5.316;2022-07-22T14:06:35;6.90;;;4.50;;
32521;SDS011;18963;51.504;5.316;2022-07-22T14:09:02;7.93;;;5.53;;
32521;SDS011;18963;51.504;5.316;2022-07-22T14:11:28;7.32;;;4.95;;
32521;SDS011;18963;51.504;5.316;2022-07-22T14:13:54;5.97;;;4.65;;
32521;SDS011;18963;51.504;5.316;2022-07-22T14:16:19;6.10;;;4.72;;
32521;SDS011;18963;51.504;5.316;2022-07-22T14:19:02;7.78;;;5.30;;
32521;SDS011;18963;51.504;5.316;2022-07-22T14:21:32;7.57;;;5.25;;
32521;SDS011;18963;51.504;5.316;2022-07-22T14:23:58;6.82;;;4.80;;
32521;SDS011;18963;51.504;5.316;2022-07-22T14:26:25;8.32;;;5.55;;
32521;SDS011;18963;51.504;5.316;2022-07-22T14:28:51;6.85;;;4.70;;
32521;SDS011;18963;51.504;5.316;2022-07-22T14:31:17;6.20;;;4.88;;
32521;SDS011;18963;51.504;5.316;2022-07-22T14:33:42;7.25;;;4.80;;
32521;SDS011;18963;51.504;5.316;2022-07-22T14:36:08;8.10;;;5.57;;
32521;SDS011;18963;51.504;5.316;2022-07-22T14:38:34;7.30;;;5.18;;
32521;SDS011;18963;51.504;5.316;2022-07-22T14:40:59;7.30;;;4.88;;
32521;SDS011;18963;51.504;5.316;2022-07-22T14:43:25;6.95;;;4.93;;
32521;SDS011;18963;51.504;5.316;2022-07-22T14:45:51;8.85;;;5.63;;
32521;SDS011;18963;51.504;5.316;2022-07-22T14:48:17;8.02;;;5.40;;
32521;SDS011;18963;51.504;5.316;2022-07-22T14:50:42;6.90;;;4.75;;
32521;SDS011;18963;51.504;5.316;2022-07-22T14:53:08;11.27;;;5.03;;
32521;SDS011;18963;51.504;5.316;2022-07-22T14:55:33;6.47;;;4.85;;
32521;SDS011;18963;51.504;5.316;2022-07-22T14:57:59;7.40;;;4.60;;
32521;SDS011;18963;51.504;5.316;2022-07-22T15:00:25;7.78;;;4.80;;
32521;SDS011;18963;51.504;5.316;2022-07-22T15:02:50;8.02;;;4.75;;
32521;SDS011;18963;51.504;5.316;2022-07-22T15:05:16;6.57;;;4.32;;
32521;SDS011;18963;51.504;5.316;2022-07-22T15:07:41;7.10;;;5.20;;
32521;SDS011;18963;51.504;5.316;2022-07-22T15:10:07;7.25;;;5.47;;
32521;SDS011;18963;51.504;5.316;2022-07-22T15:12:33;7.43;;;4.90;;
32521;SDS011;18963;51.504;5.316;2022-07-22T15:14:59;7.75;;;5.47;;